sensor_id;sensor_type;location;lat;lon;timestamp;pressure;altitude;pressure_sealevel;temperature;humidity
10881;BME280;5493;48.884;8.338;2023-03-13T00:02:16;99670.13;;;14.00;100.00
10881;BME280;5493;48.884;8.338;2023-03-13T00:04:43;99676.66;;;13.99;100.00
10881;BME280;5493;48.884;8.338;2023-03-13T00:07:11;99667.47;;;14.05;100.00
10881;BME280;5493;48.884;8.338;2023-03-13T00:09:38;99657.25;;;13.86;100.00
10881;BME280;5493;48.884;8.338;2023-03-13T00:12:05;99672.13;;;14.10;100.00
10881;BME280;5493;48.884;8.338;2023-03-13T00:14:31;99660.19;;;14.11;100.00
10881;BME280;5493;48.884;8.338;2023-03-13T00:16:58;99657.31;;;14.17;100.00
10881;BME280;5493;48.884;8.338;2023-03-13T00:19:27;99651.00;;;14.12;100.00
10881;BME280;5493;48.884;8.338;2023-03-13T00:21:53;99652.84;;;14.06;100.00
10881;BME280;5493;48.884;8.338;2023-03-13T00:24:21;99648.59;;;14.15;100.00
10881;BME280;5493;48.884;8.338;2023-03-13T00:26:48;99650.78;;;14.18;100.00
10881;BME280;5493;48.884;8.338;2023-03-13T00:29:14;99644.88;;;14.21;100.00
10881;BME280;5493;48.884;8.338;2023-03-13T00:31:41;99632.91;;;14.17;100.00
10881;BME280;5493;48.884;8.338;2023-03-13T00:34:08;99620.66;;;14.15;100.00
10881;BME280;5493;48.884;8.338;2023-03-13T00:36:34;99613.81;;;14.07;100.00
10881;BME280;5493;48.884;8.338;2023-03-13T00:39:02;99605.81;;;14.22;100.00
10881;BME280;5493;48.884;8.338;2023-03-13T00:41:31;99610.94;;;14.19;100.00
10881;BME280;5493;48.884;8.338;2023-03-13T00:43:58;99574.56;;;14.15;100.00
10881;BME280;5493;48.884;8.338;2023-03-13T00:46:27;99599.91;;;14.30;100.00
10881;BME280;5493;48.884;8.338;2023-03-13T00:48:54;99593.41;;;14.32;100.00
10881;BME280;5493;48.884;8.338;2023-03-13T00:51:21;99586.31;;;14.25;100.00
10881;BME280;5493;48.884;8.338;2023-03-13T00:53:50;99582.22;;;14.23;100.00
10881;BME280;5493;48.884;8.338;2023-03-13T00:56:19;99580.47;;;14.39;100.00
10881;BME280;5493;48.884;8.338;2023-03-13T00:58:48;99582.81;;;14.25;100.00
10881;BME280;5493;48.884;8.338;2023-03-13T01:01:19;99579.94;;;14.42;100.00
10881;BME280;5493;48.884;8.338;2023-03-13T01:03:48;99575.06;;;14.39;100.00
10881;BME280;5493;48.884;8.338;2023-03-13T01:06:17;99573.41;;;14.38;100.00
10881;BME280;5493;48.884;8.338;2023-03-13T01:08:45;99567.38;;;14.30;100.00
10881;BME280;5493;48.884;8.338;2023-03-13T01:11:14;99558.06;;;14.53;100.00
10881;BME280;5493;48.884;8.338;2023-03-13T01:13:41;99555.88;;;14.50;100.00
10881;BME280;5493;48.884;8.338;2023-03-13T01:16:10;99556.13;;;14.49;100.00
10881;BME280;5493;48.884;8.338;2023-03-13T01:18:39;99548.19;;;14.37;100.00
10881;BME280;5493;48.884;8.338;2023-03-13T01:21:06;99554.72;;;14.41;100.00
10881;BME280;5493;48.884;8.338;2023-03-13T01:23:33;99547.41;;;14.42;100.00
10881;BME280;5493;48.884;8.338;2023-03-13T01:26:00;99542.59;;;14.54;100.00
10881;BME280;5493;48.884;8.338;2023-03-13T01:28:26;99542.78;;;14.42;100.00
10881;BME280;5493;48.884;8.338;2023-03-13T01:30:53;99544.78;;;14.57;100.00
10881;BME280;5493;48.884;8.338;2023-03-13T01:33:21;99546.97;;;14.60;100.00
10881;BME280;5493;48.884;8.338;2023-03-13T01:35:47;99538.50;;;14.51;100.00
10881;BME280;5493;48.884;8.338;2023-03-13T01:38:14;99537.75;;;14.66;100.00
10881;BME280;5493;48.884;8.338;2023-03-13T01:40:43;99520.16;;;14.68;100.00
10881;BME280;5493;48.884;8.338;2023-03-13T01:43:18;99518.72;;;14.56;100.00
10881;BME280;5493;48.884;8.338;2023-03-13T01:46:00;99517.41;;;14.63;100.00
10881;BME280;5493;48.884;8.338;2023-03-13T01:48:36;99517.31;;;14.48;100.00
10881;BME280;5493;48.884;8.338;2023-03-13T01:51:08;99512.75;;;14.54;100.00
10881;BME280;5493;48.884;8.338;2023-03-13T01:53:38;99500.47;;;14.41;100.00
10881;BME280;5493;48.884;8.338;2023-03-13T01:56:07;99498.28;;;14.38;100.00
10881;BME280;5493;48.884;8.338;2023-03-13T01:58:37;99507.97;;;14.29;100.00
10881;BME280;5493;48.884;8.338;2023-03-13T02:01:04;99509.31;;;14.26;100.00
10881;BME280;5493;48.884;8.338;2023-03-13T02:03:33;99493.72;;;14.02;100.00
10881;BME280;5493;48.884;8.338;2023-03-13T02:06:01;99503.97;;;13.95;100.00
10881;BME280;5493;48.884;8.338;2023-03-13T02:08:32;99507.56;;;14.05;100.00
10881;BME280;5493;48.884;8.338;2023-03-13T02:11:09;99496.38;;;13.97;100.00
10881;BME280;5493;48.884;8.338;2023-03-13T02:13:37;99496.53;;;13.80;100.00
10881;BME280;5493;48.884;8.338;2023-03-13T02:16:05;99490.38;;;13.90;100.00
10881;BME280;5493;48.884;8.338;2023-03-13T02:18:32;99488.94;;;13.82;100.00
10881;BME280;5493;48.884;8.338;2023-03-13T02:21:08;99478.13;;;13.82;100.00
10881;BME280;5493;48.884;8.338;2023-03-13T02:23:40;99480.81;;;13.77;100.00
10881;BME280;5493;48.884;8.338;2023-03-13T02:26:09;99477.75;;;13.68;100.00
10881;BME280;5493;48.884;8.338;2023-03-13T02:28:36;99462.09;;;13.75;100.00
10881;BME280;5493;48.884;8.338;2023-03-13T02:31:05;99457.84;;;13.85;100.00
10881;BME280;5493;48.884;8.338;2023-03-13T02:33:34;99461.25;;;13.70;100.00
10881;BME280;5493;48.884;8.338;2023-03-13T02:36:03;99443.13;;;13.75;100.00
10881;BME280;5493;48.884;8.338;2023-03-13T02:38:32;99452.53;;;13.63;100.00
10881;BME280;5493;48.884;8.338;2023-03-13T02:41:01;99438.53;;;13.76;100.00
10881;BME280;5493;48.884;8.338;2023-03-13T02:43:33;99423.06;;;13.71;100.00
10881;BME280;5493;48.884;8.338;2023-03-13T02:46:06;99419.91;;;13.85;100.00
10881;BME280;5493;48.884;8.338;2023-03-13T02:48:35;99416.38;;;13.84;100.00
10881;BME280;5493;48.884;8.338;2023-03-13T02:51:05;99413.03;;;13.67;100.00
10881;BME280;5493;48.884;8.338;2023-03-13T02:53:34;99423.63;;;13.78;100.00
10881;BME280;5493;48.884;8.338;2023-03-13T02:56:03;99416.38;;;13.84;100.00
10881;BME280;5493;48.884;8.338;2023-03-13T02:58:38;99422.84;;;13.83;100.00
10881;BME280;5493;48.884;8.338;2023-03-13T03:01:05;99419.38;;;13.88;100.00
10881;BME280;5493;48.884;8.338;2023-03-13T03:03:32;99410.97;;;13.89;100.00
10881;BME280;5493;48.884;8.338;2023-03-13T03:05:59;99392.31;;;13.98;100.00
10881;BME280;5493;48.884;8.338;2023-03-13T03:08:25;99388.72;;;13.82;100.00
10881;BME280;5493;48.884;8.338;2023-03-13T03:10:52;99389.63;;;13.98;100.00
10881;BME280;5493;48.884;8.338;2023-03-13T03:13:19;99387.19;;;14.01;100.00
10881;BME280;5493;48.884;8.338;2023-03-13T03:15:47;99398.81;;;13.97;100.00
10881;BME280;5493;48.884;8.338;2023-03-13T03:18:13;99386.84;;;13.88;100.00
10881;BME280;5493;48.884;8.338;2023-03-13T03:20:40;99394.63;;;13.74;100.00
10881;BME280;5493;48.884;8.338;2023-03-13T03:23:06;99391.16;;;13.84;100.00
10881;BME280;5493;48.884;8.338;2023-03-13T03:25:33;99392.28;;;13.93;100.00
10881;BME280;5493;48.884;8.338;2023-03-13T03:28:00;99392.75;;;13.74;100.00
10881;BME280;5493;48.884;8.338;2023-03-13T03:30:26;99397.38;;;13.79;100.00
10881;BME280;5493;48.884;8.338;2023-03-13T03:32:54;99385.75;;;13.84;100.00
10881;BME280;5493;48.884;8.338;2023-03-13T03:35:21;99395.84;;;13.98;100.00
10881;BME280;5493;48.884;8.338;2023-03-13T03:37:47;99371.97;;;13.90;100.00
10881;BME280;5493;48.884;8.338;2023-03-13T03:40:14;99380.84;;;13.80;100.00
10881;BME280;5493;48.884;8.338;2023-03-13T03:42:40;99373.63;;;13.96;100.00
10881;BME280;5493;48.884;8.338;2023-03-13T03:45:08;99375.25;;;13.92;100.00
10881;BME280;5493;48.884;8.338;2023-03-13T03:47:34;99369.81;;;13.97;100.00
10881;BME280;5493;48.884;8.338;2023-03-13T03:50:02;99373.44;;;14.13;100.00
10881;BME280;5493;48.884;8.338;2023-03-13T03:52:29;99367.06;;;13.87;100.00
10881;BME280;5493;48.884;8.338;2023-03-13T03:54:56;99366.09;;;14.08;100.00
10881;BME280;5493;48.884;8.338;2023-03-13T03:57:23;99361.47;;;14.09;100.00
10881;BME280;5493;48.884;8.338;2023-03-13T03:59:49;99357.41;;;14.06;100.00
10881;BME280;5493;48.884;8.338;2023-03-13T04:02:16;99356.06;;;14.09;100.00
10881;BME280;5493;48.884;8.338;2023-03-13T04:04:42;99353.22;;;14.36;100.00
10881;BME280;5493;48.884;8.338;2023-03-13T04:07:10;99332.19;;;14.06;100.00
10881;BME280;5493;48.884;8.338;2023-03-13T04:09:37;99351.63;;;13.93;100.00
10881;BME280;5493;48.884;8.338;2023-03-13T04:12:04;99340.03;;;14.02;100.00
10881;BME280;5493;48.884;8.338;2023-03-13T04:14:30;99346.06;;;14.19;100.00
10881;BME280;5493;48.884;8.338;2023-03-13T04:16:57;99349.53;;;14.05;100.00
10881;BME280;5493;48.884;8.338;2023-03-13T04:19:23;99341.72;;;14.18;100.00
10881;BME280;5493;48.884;8.338;2023-03-13T04:21:50;99323.56;;;14.14;100.00
10881;BME280;5493;48.884;8.338;2023-03-13T04:24:18;99313.00;;;14.17;100.00
10881;BME280;5493;48.884;8.338;2023-03-13T04:26:44;99303.47;;;14.10;100.00
10881;BME280;5493;48.884;8.338;2023-03-13T04:29:11;99333.84;;;14.12;100.00
10881;BME280;5493;48.884;8.338;2023-03-13T04:31:37;99290.22;;;14.13;100.00
10881;BME280;5493;48.884;8.338;2023-03-13T04:34:04;99321.63;;;14.14;100.00
10881;BME280;5493;48.884;8.338;2023-03-13T04:36:30;99318.69;;;14.26;100.00
10881;BME280;5493;48.884;8.338;2023-03-13T04:38:57;99313.00;;;14.17;100.00
10881;BME280;5493;48.884;8.338;2023-03-13T04:41:24;99318.16;;;14.29;100.00
10881;BME280;5493;48.884;8.338;2023-03-13T04:43:51;99295.59;;;14.08;100.00
10881;BME280;5493;48.884;8.338;2023-03-13T04:46:17;99322.78;;;14.28;100.00
10881;BME280;5493;48.884;8.338;2023-03-13T04:48:44;99314.44;;;14.45;100.00
10881;BME280;5493;48.884;8.338;2023-03-13T04:51:11;99305.13;;;14.16;100.00
10881;BME280;5493;48.884;8.338;2023-03-13T04:53:38;99317.59;;;14.22;100.00
10881;BME280;5493;48.884;8.338;2023-03-13T04:56:05;99307.56;;;14.22;100.00
10881;BME280;5493;48.884;8.338;2023-03-13T04:58:33;99294.88;;;14.28;100.00
10881;BME280;5493;48.884;8.338;2023-03-13T05:00:59;99300.81;;;14.25;100.00
10881;BME280;5493;48.884;8.338;2023-03-13T05:03:26;99293.19;;;14.12;100.00
10881;BME280;5493;48.884;8.338;2023-03-13T05:05:52;99343.84;;;14.11;100.00
10881;BME280;5493;48.884;8.338;2023-03-13T05:08:19;99343.09;;;14.21;100.00
10881;BME280;5493;48.884;8.338;2023-03-13T05:10:45;99341.72;;;14.13;100.00
10881;BME280;5493;48.884;8.338;2023-03-13T05:13:12;99334.41;;;14.14;100.00
10881;BME280;5493;48.884;8.338;2023-03-13T05:15:40;99337.66;;;14.16;100.00
10881;BME280;5493;48.884;8.338;2023-03-13T05:18:06;99343.56;;;14.08;100.00
10881;BME280;5493;48.884;8.338;2023-03-13T05:20:33;99343.91;;;14.21;100.00
10881;BME280;5493;48.884;8.338;2023-03-13T05:22:59;99334.66;;;14.12;100.00
10881;BME280;5493;48.884;8.338;2023-03-13T05:25:26;99317.00;;;14.05;100.00
10881;BME280;5493;48.884;8.338;2023-03-13T05:27:52;99330.31;;;14.06;100.00
10881;BME280;5493;48.884;8.338;2023-03-13T05:30:19;99318.97;;;14.19;100.00
10881;BME280;5493;48.884;8.338;2023-03-13T05:32:47;99329.25;;;14.22;100.00
10881;BME280;5493;48.884;8.338;2023-03-13T05:35:13;99325.97;;;14.05;100.00
10881;BME280;5493;48.884;8.338;2023-03-13T05:37:40;99338.50;;;14.21;100.00
10881;BME280;5493;48.884;8.338;2023-03-13T05:40:08;99336.56;;;14.17;100.00
10881;BME280;5493;48.884;8.338;2023-03-13T05:42:34;99344.16;;;14.15;100.00
10881;BME280;5493;48.884;8.338;2023-03-13T05:45:01;99345.38;;;14.49;100.00
10881;BME280;5493;48.884;8.338;2023-03-13T05:47:27;99349.69;;;14.40;100.00
10881;BME280;5493;48.884;8.338;2023-03-13T05:49:55;99350.16;;;14.27;100.00
10881;BME280;5493;48.884;8.338;2023-03-13T05:52:22;99358.53;;;14.10;100.00
10881;BME280;5493;48.884;8.338;2023-03-13T05:54:48;99362.66;;;14.33;100.00
10881;BME280;5493;48.884;8.338;2023-03-13T05:57:15;99361.88;;;14.38;100.00
10881;BME280;5493;48.884;8.338;2023-03-13T05:59:42;99346.63;;;14.21;100.00
10881;BME280;5493;48.884;8.338;2023-03-13T06:02:08;99358.03;;;14.34;100.00
10881;BME280;5493;48.884;8.338;2023-03-13T06:04:35;99347.16;;;14.23;100.00
10881;BME280;5493;48.884;8.338;2023-03-13T06:07:03;99326.56;;;14.32;100.00
10881;BME280;5493;48.884;8.338;2023-03-13T06:09:30;99373.81;;;14.37;100.00
10881;BME280;5493;48.884;8.338;2023-03-13T06:11:56;99347.97;;;14.29;100.00
10881;BME280;5493;48.884;8.338;2023-03-13T06:14:23;99343.38;;;14.24;100.00
10881;BME280;5493;48.884;8.338;2023-03-13T06:16:50;99341.03;;;14.43;100.00
10881;BME280;5493;48.884;8.338;2023-03-13T06:19:16;99316.25;;;14.19;100.00
10881;BME280;5493;48.884;8.338;2023-03-13T06:21:43;99339.16;;;14.54;100.00
10881;BME280;5493;48.884;8.338;2023-03-13T06:24:11;99340.22;;;14.43;100.00
10881;BME280;5493;48.884;8.338;2023-03-13T06:26:37;99342.84;;;14.27;100.00
10881;BME280;5493;48.884;8.338;2023-03-13T06:29:04;99350.81;;;14.49;100.00
10881;BME280;5493;48.884;8.338;2023-03-13T06:31:30;99348.81;;;14.24;100.00
10881;BME280;5493;48.884;8.338;2023-03-13T06:33:57;99356.19;;;14.34;100.00
10881;BME280;5493;48.884;8.338;2023-03-13T06:36:24;99354.47;;;14.23;100.00
10881;BME280;5493;48.884;8.338;2023-03-13T06:38:51;99338.78;;;14.30;100.00
10881;BME280;5493;48.884;8.338;2023-03-13T06:41:19;99355.88;;;14.30;100.00
10881;BME280;5493;48.884;8.338;2023-03-13T06:43:45;99368.94;;;14.39;100.00
10881;BME280;5493;48.884;8.338;2023-03-13T06:46:15;99357.34;;;14.63;100.00
10881;BME280;5493;48.884;8.338;2023-03-13T06:48:42;99376.34;;;14.63;100.00
10881;BME280;5493;48.884;8.338;2023-03-13T06:51:10;99348.66;;;14.56;100.00
10881;BME280;5493;48.884;8.338;2023-03-13T06:53:37;99362.72;;;14.48;100.00
10881;BME280;5493;48.884;8.338;2023-03-13T06:56:04;99363.81;;;14.52;100.00
10881;BME280;5493;48.884;8.338;2023-03-13T06:58:32;99351.09;;;14.73;100.00
10881;BME280;5493;48.884;8.338;2023-03-13T07:00:59;99332.91;;;14.63;100.00
10881;BME280;5493;48.884;8.338;2023-03-13T07:03:25;99328.03;;;14.60;100.00
10881;BME280;5493;48.884;8.338;2023-03-13T07:05:54;99331.59;;;14.86;100.00
10881;BME280;5493;48.884;8.338;2023-03-13T07:08:21;99331.59;;;14.86;100.00
10881;BME280;5493;48.884;8.338;2023-03-13T07:10:49;99329.69;;;14.82;100.00
10881;BME280;5493;48.884;8.338;2023-03-13T07:13:17;99317.47;;;14.64;100.00
10881;BME280;5493;48.884;8.338;2023-03-13T07:15:45;99330.22;;;14.68;100.00
10881;BME280;5493;48.884;8.338;2023-03-13T07:18:12;99338.63;;;14.77;100.00
10881;BME280;5493;48.884;8.338;2023-03-13T07:20:39;99330.22;;;14.84;100.00
10881;BME280;5493;48.884;8.338;2023-03-13T07:23:05;99322.34;;;15.02;100.00
10881;BME280;5493;48.884;8.338;2023-03-13T07:25:32;99314.75;;;15.14;100.00
10881;BME280;5493;48.884;8.338;2023-03-13T07:27:59;99314.78;;;15.04;100.00
10881;BME280;5493;48.884;8.338;2023-03-13T07:30:25;99298.44;;;15.19;100.00
10881;BME280;5493;48.884;8.338;2023-03-13T07:32:53;99293.56;;;15.21;100.00
10881;BME280;5493;48.884;8.338;2023-03-13T07:35:20;99293.03;;;14.99;100.00
10881;BME280;5493;48.884;8.338;2023-03-13T07:37:46;99283.78;;;15.20;100.00
10881;BME280;5493;48.884;8.338;2023-03-13T07:40:13;99287.06;;;15.12;100.00
10881;BME280;5493;48.884;8.338;2023-03-13T07:42:40;99292.19;;;15.39;100.00
10881;BME280;5493;48.884;8.338;2023-03-13T07:45:07;99294.34;;;15.47;100.00
10881;BME280;5493;48.884;8.338;2023-03-13T07:47:34;99269.38;;;15.40;100.00
10881;BME280;5493;48.884;8.338;2023-03-13T07:50:02;99285.38;;;15.47;100.00
10881;BME280;5493;48.884;8.338;2023-03-13T07:52:29;99277.50;;;15.40;100.00
10881;BME280;5493;48.884;8.338;2023-03-13T07:54:55;99270.13;;;15.61;100.00
10881;BME280;5493;48.884;8.338;2023-03-13T07:57:22;99281.25;;;15.69;100.00
10881;BME280;5493;48.884;8.338;2023-03-13T07:59:49;99276.13;;;15.58;100.00
10881;BME280;5493;48.884;8.338;2023-03-13T08:02:15;99277.22;;;15.62;100.00
10881;BME280;5493;48.884;8.338;2023-03-13T08:04:42;99288.31;;;15.70;100.00
10881;BME280;5493;48.884;8.338;2023-03-13T08:07:10;99290.13;;;15.90;100.00
10881;BME280;5493;48.884;8.338;2023-03-13T08:09:37;99286.41;;;15.76;100.00
10881;BME280;5493;48.884;8.338;2023-03-13T08:12:04;99282.88;;;15.70;100.00
10881;BME280;5493;48.884;8.338;2023-03-13T08:14:30;99291.22;;;15.89;100.00
10881;BME280;5493;48.884;8.338;2023-03-13T08:16:57;99290.66;;;15.97;100.00
10881;BME280;5493;48.884;8.338;2023-03-13T08:19:23;99275.97;;;15.98;100.00
10881;BME280;5493;48.884;8.338;2023-03-13T08:21:50;99287.91;;;16.02;100.00
10881;BME280;5493;48.884;8.338;2023-03-13T08:24:18;99288.25;;;15.86;100.00
10881;BME280;5493;48.884;8.338;2023-03-13T08:26:44;99281.53;;;15.68;100.00
10881;BME280;5493;48.884;8.338;2023-03-13T08:29:13;99287.38;;;16.00;100.00
10881;BME280;5493;48.884;8.338;2023-03-13T08:31:44;99309.53;;;15.68;100.00
10881;BME280;5493;48.884;8.338;2023-03-13T08:34:12;99282.25;;;15.89;100.00
10881;BME280;5493;48.884;8.338;2023-03-13T08:36:40;99295.88;;;15.79;100.00
10881;BME280;5493;48.884;8.338;2023-03-13T08:39:10;99296.41;;;15.91;100.00
10881;BME280;5493;48.884;8.338;2023-03-13T08:41:38;99280.75;;;15.62;100.00
10881;BME280;5493;48.884;8.338;2023-03-13T08:44:07;99278.19;;;15.81;100.00
10881;BME280;5493;48.884;8.338;2023-03-13T08:46:36;99284.94;;;15.99;100.00
10881;BME280;5493;48.884;8.338;2023-03-13T08:49:03;99267.88;;;15.83;100.00
10881;BME280;5493;48.884;8.338;2023-03-13T08:51:31;99251.75;;;16.02;100.00
10881;BME280;5493;48.884;8.338;2023-03-13T08:53:57;99264.22;;;16.03;100.00
10881;BME280;5493;48.884;8.338;2023-03-13T08:56:25;99257.06;;;16.22;100.00
10881;BME280;5493;48.884;8.338;2023-03-13T08:58:57;99254.81;;;16.34;100.00
10881;BME280;5493;48.884;8.338;2023-03-13T09:01:27;99260.13;;;16.10;100.00
10881;BME280;5493;48.884;8.338;2023-03-13T09:03:54;99254.59;;;16.25;100.00
10881;BME280;5493;48.884;8.338;2023-03-13T09:06:20;99247.78;;;16.28;100.00
10881;BME280;5493;48.884;8.338;2023-03-13T09:08:48;99250.19;;;16.35;100.00
10881;BME280;5493;48.884;8.338;2023-03-13T09:11:16;99251.94;;;16.20;100.00
10881;BME280;5493;48.884;8.338;2023-03-13T09:13:44;99233.31;;;16.33;100.00
10881;BME280;5493;48.884;8.338;2023-03-13T09:16:14;99233.72;;;16.55;100.00
10881;BME280;5493;48.884;8.338;2023-03-13T09:18:41;99223.94;;;16.88;100.00
10881;BME280;5493;48.884;8.338;2023-03-13T09:21:11;99228.84;;;16.86;100.00
10881;BME280;5493;48.884;8.338;2023-03-13T09:23:38;99204.56;;;16.60;100.00
10881;BME280;5493;48.884;8.338;2023-03-13T09:26:05;99210.59;;;16.86;100.00
10881;BME280;5493;48.884;8.338;2023-03-13T09:28:33;99210.34;;;17.11;100.00
10881;BME280;5493;48.884;8.338;2023-03-13T09:31:06;99217.44;;;17.12;100.00
10881;BME280;5493;48.884;8.338;2023-03-13T09:33:34;99235.41;;;17.13;100.00
10881;BME280;5493;48.884;8.338;2023-03-13T09:36:01;99219.81;;;17.43;100.00
10881;BME280;5493;48.884;8.338;2023-03-13T09:38:28;99214.66;;;17.41;100.00
10881;BME280;5493;48.884;8.338;2023-03-13T09:40:55;99201.28;;;17.68;100.00
10881;BME280;5493;48.884;8.338;2023-03-13T09:43:36;99212.06;;;17.97;100.00
10881;BME280;5493;48.884;8.338;2023-03-13T09:46:10;99185.44;;;17.89;100.00
10881;BME280;5493;48.884;8.338;2023-03-13T09:48:42;99217.00;;;18.33;100.00
10881;BME280;5493;48.884;8.338;2023-03-13T09:51:14;99169.59;;;18.10;100.00
10881;BME280;5493;48.884;8.338;2023-03-13T09:53:46;99198.44;;;17.97;100.00
10881;BME280;5493;48.884;8.338;2023-03-13T09:56:18;99193.91;;;18.25;100.00
10881;BME280;5493;48.884;8.338;2023-03-13T09:58:52;99194.13;;;18.29;100.00
10881;BME280;5493;48.884;8.338;2023-03-13T10:01:23;99197.91;;;18.14;100.00
10881;BME280;5493;48.884;8.338;2023-03-13T10:03:59;99192.66;;;18.17;100.00
10881;BME280;5493;48.884;8.338;2023-03-13T10:06:29;99193.47;;;18.37;100.00
10881;BME280;5493;48.884;8.338;2023-03-13T10:08:59;99179.22;;;18.40;100.00
10881;BME280;5493;48.884;8.338;2023-03-13T10:11:27;99162.81;;;18.26;100.00
10881;BME280;5493;48.884;8.338;2023-03-13T10:14:00;99157.91;;;18.42;100.00
10881;BME280;5493;48.884;8.338;2023-03-13T10:16:31;99156.38;;;18.17;100.00
10881;BME280;5493;48.884;8.338;2023-03-13T10:19:10;99179.81;;;18.88;100.00
10881;BME280;5493;48.884;8.338;2023-03-13T10:21:38;99168.88;;;18.88;100.00
10881;BME280;5493;48.884;8.338;2023-03-13T10:24:13;99157.97;;;18.88;100.00
10881;BME280;5493;48.884;8.338;2023-03-13T10:26:42;99159.88;;;19.14;100.00
10881;BME280;5493;48.884;8.338;2023-03-13T10:29:20;99150.66;;;18.97;100.00
10881;BME280;5493;48.884;8.338;2023-03-13T10:31:54;99148.72;;;18.70;100.00
10881;BME280;5493;48.884;8.338;2023-03-13T10:34:22;99155.72;;;18.90;100.00
10881;BME280;5493;48.884;8.338;2023-03-13T10:36:54;99150.66;;;18.83;100.00
10881;BME280;5493;48.884;8.338;2023-03-13T10:39:23;99132.44;;;18.92;100.00
10881;BME280;5493;48.884;8.338;2023-03-13T10:41:56;99143.81;;;18.53;100.00
10881;BME280;5493;48.884;8.338;2023-03-13T10:44:29;99130.78;;;18.64;100.00
10881;BME280;5493;48.884;8.338;2023-03-13T10:46:59;99127.19;;;18.96;100.00
10881;BME280;5493;48.884;8.338;2023-03-13T10:49:29;99116.44;;;18.72;100.00
10881;BME280;5493;48.884;8.338;2023-03-13T10:51:57;99105.94;;;18.79;100.00
10881;BME280;5493;48.884;8.338;2023-03-13T10:54:26;99116.16;;;19.28;100.00
10881;BME280;5493;48.884;8.338;2023-03-13T10:57:25;99098.44;;;19.26;100.00
10881;BME280;5493;48.884;8.338;2023-03-13T10:59:53;99092.03;;;19.57;100.00
10881;BME280;5493;48.884;8.338;2023-03-13T11:02:22;99084.28;;;20.09;100.00
10881;BME280;5493;48.884;8.338;2023-03-13T11:04:52;99080.53;;;20.27;100.00
10881;BME280;5493;48.884;8.338;2023-03-13T11:07:26;99069.34;;;19.93;100.00
10881;BME280;5493;48.884;8.338;2023-03-13T11:09:58;99055.41;;;19.81;100.00
10881;BME280;5493;48.884;8.338;2023-03-13T11:12:25;99057.81;;;20.27;100.00
10881;BME280;5493;48.884;8.338;2023-03-13T11:14:56;99062.59;;;21.14;100.00
10881;BME280;5493;48.884;8.338;2023-03-13T11:17:29;99053.75;;;21.17;100.00
10881;BME280;5493;48.884;8.338;2023-03-13T11:20:05;99039.66;;;21.01;100.00
10881;BME280;5493;48.884;8.338;2023-03-13T11:25:30;99030.03;;;21.21;100.00
10881;BME280;5493;48.884;8.338;2023-03-13T11:28:13;99007.13;;;20.60;100.00
10881;BME280;5493;48.884;8.338;2023-03-13T11:30:52;99035.16;;;21.05;100.00
10881;BME280;5493;48.884;8.338;2023-03-13T11:33:28;99002.00;;;21.92;100.00
10881;BME280;5493;48.884;8.338;2023-03-13T11:36:06;99015.56;;;22.06;100.00
10881;BME280;5493;48.884;8.338;2023-03-13T11:38:38;98994.78;;;21.45;100.00
10881;BME280;5493;48.884;8.338;2023-03-13T11:41:17;99018.78;;;21.56;100.00
10881;BME280;5493;48.884;8.338;2023-03-13T11:44:00;99016.88;;;22.46;100.00
10881;BME280;5493;48.884;8.338;2023-03-13T11:46:41;99002.28;;;22.72;100.00
10881;BME280;5493;48.884;8.338;2023-03-13T11:49:31;98982.78;;;22.56;100.00
10881;BME280;5493;48.884;8.338;2023-03-13T11:52:20;98976.38;;;22.81;100.00
10881;BME280;5493;48.884;8.338;2023-03-13T11:54:58;98960.38;;;23.04;100.00
10881;BME280;5493;48.884;8.338;2023-03-13T11:57:31;98959.31;;;22.21;100.00
10881;BME280;5493;48.884;8.338;2023-03-13T12:00:15;98953.69;;;22.55;100.00
10881;BME280;5493;48.884;8.338;2023-03-13T12:02:46;98944.19;;;22.44;100.00
10881;BME280;5493;48.884;8.338;2023-03-13T12:05:18;98935.78;;;22.49;100.00
10881;BME280;5493;48.884;8.338;2023-03-13T12:07:50;98928.09;;;22.72;100.00
10881;BME280;5493;48.884;8.338;2023-03-13T12:10:21;98937.63;;;22.74;100.00
10881;BME280;5493;48.884;8.338;2023-03-13T12:12:55;98916.75;;;22.73;100.00
10881;BME280;5493;48.884;8.338;2023-03-13T12:15:27;98925.56;;;22.87;100.00
10881;BME280;5493;48.884;8.338;2023-03-13T12:17:58;98888.84;;;22.33;100.00
10881;BME280;5493;48.884;8.338;2023-03-13T12:20:28;98902.50;;;23.42;100.00
10881;BME280;5493;48.884;8.338;2023-03-13T12:23:13;98906.88;;;23.22;100.00
10881;BME280;5493;48.884;8.338;2023-03-13T12:25:44;98887.50;;;23.19;100.00
10881;BME280;5493;48.884;8.338;2023-03-13T12:28:20;98896.44;;;23.48;100.00
10881;BME280;5493;48.884;8.338;2023-03-13T12:30:52;98882.16;;;22.72;100.00
10881;BME280;5493;48.884;8.338;2023-03-13T12:33:24;98887.19;;;22.70;100.00
10881;BME280;5493;48.884;8.338;2023-03-13T12:35:59;98877.03;;;22.71;100.00
10881;BME280;5493;48.884;8.338;2023-03-13T12:38:33;98873.47;;;22.91;100.00
10881;BME280;5493;48.884;8.338;2023-03-13T12:41:12;98859.06;;;22.73;100.00
10881;BME280;5493;48.884;8.338;2023-03-13T12:43:43;98870.28;;;22.60;100.00
10881;BME280;5493;48.884;8.338;2023-03-13T12:46:24;98855.00;;;22.50;100.00
10881;BME280;5493;48.884;8.338;2023-03-13T12:52:06;98836.19;;;22.61;100.00
10881;BME280;5493;48.884;8.338;2023-03-13T12:57:42;98790.50;;;22.27;100.00
10881;BME280;5493;48.884;8.338;2023-03-13T13:00:19;98812.72;;;22.42;100.00
10881;BME280;5493;48.884;8.338;2023-03-13T13:02:46;98801.38;;;22.15;100.00
10881;BME280;5493;48.884;8.338;2023-03-13T13:05:19;98804.47;;;22.13;100.00
10881;BME280;5493;48.884;8.338;2023-03-13T13:07:52;98782.09;;;22.52;100.00
10881;BME280;5493;48.884;8.338;2023-03-13T13:10:22;98778.53;;;22.52;100.00
10881;BME280;5493;48.884;8.338;2023-03-13T13:13:18;98778.31;;;22.36;100.00
10881;BME280;5493;48.884;8.338;2023-03-13T13:15:46;98743.81;;;22.27;100.00
10881;BME280;5493;48.884;8.338;2023-03-13T13:18:22;98766.88;;;22.55;100.00
10881;BME280;5493;48.884;8.338;2023-03-13T13:21:19;98751.13;;;22.43;100.00